createdAt,value
2022-11-05T00:02:00.000Z,280.21
2022-11-05T00:03:26.000Z,280.21
2022-11-05T00:05:33.000Z,280.21
2022-11-05T00:06:59.000Z,280.21
2022-11-05T00:09:05.000Z,280.15
2022-11-05T00:10:32.000Z,280.21
2022-11-05T00:12:38.000Z,280.15
2022-11-05T00:14:04.000Z,280.21
2022-11-05T00:16:10.000Z,280.21
2022-11-05T00:17:37.000Z,280.21
2022-11-05T00:19:43.000Z,280.15
2022-11-05T00:21:09.000Z,280.21
2022-11-05T00:23:15.000Z,280.15
2022-11-05T00:24:42.000Z,280.21
2022-11-05T00:26:48.000Z,280.15
2022-11-05T00:28:15.000Z,280.21
2022-11-05T00:30:21.000Z,280.15
2022-11-05T00:31:47.000Z,280.15
2022-11-05T00:33:53.000Z,280.15
2022-11-05T00:35:20.000Z,280.15
2022-11-05T00:37:26.000Z,280.15
2022-11-05T00:40:17.000Z,280.21
2022-11-05T00:41:43.000Z,280.21
2022-11-05T00:43:50.000Z,280.21
2022-11-05T00:45:16.000Z,280.21
2022-11-05T00:47:22.000Z,280.21
2022-11-05T00:48:49.000Z,280.21
2022-11-05T00:50:55.000Z,280.21
2022-11-05T00:52:21.000Z,280.21
2022-11-05T00:54:27.000Z,280.21
2022-11-05T00:55:54.000Z,280.21
2022-11-05T00:58:00.000Z,280.21
2022-11-05T00:59:26.000Z,280.27
2022-11-05T01:01:33.000Z,280.21
2022-11-05T01:02:59.000Z,280.21
2022-11-05T01:05:05.000Z,280.21
2022-11-05T01:06:32.000Z,280.21
2022-11-05T01:08:38.000Z,280.21
2022-11-05T01:10:05.000Z,280.27
2022-11-05T01:12:11.000Z,280.27
2022-11-05T01:13:37.000Z,280.21
2022-11-05T01:15:43.000Z,280.21
2022-11-05T01:18:34.000Z,280.27
2022-11-05T01:20:01.000Z,280.27
2022-11-05T01:22:07.000Z,280.27
2022-11-05T01:23:33.000Z,280.27
2022-11-05T01:25:39.000Z,280.27
2022-11-05T01:27:06.000Z,280.27
2022-11-05T01:29:12.000Z,280.21
2022-11-05T01:30:39.000Z,280.21
2022-11-05T01:32:45.000Z,280.15
2022-11-05T01:34:11.000Z,280.15
2022-11-05T01:36:17.000Z,280.09
2022-11-05T01:37:44.000Z,280.09
2022-11-05T01:39:50.000Z,280.02
2022-11-05T01:41:17.000Z,280.02
2022-11-05T01:43:23.000Z,280.02
2022-11-05T01:44:49.000Z,279.96
2022-11-05T01:46:55.000Z,279.96
2022-11-05T01:48:22.000Z,279.9
2022-11-05T01:50:28.000Z,279.9
2022-11-05T01:51:54.000Z,279.9
2022-11-05T01:54:01.000Z,279.96
2022-11-05T01:56:52.000Z,279.96
2022-11-05T01:58:18.000Z,279.96
2022-11-05T02:00:24.000Z,279.96
2022-11-05T02:01:51.000Z,279.96
2022-11-05T02:03:57.000Z,279.96
2022-11-05T02:05:24.000Z,279.96
2022-11-05T02:07:30.000Z,279.9
2022-11-05T02:08:56.000Z,279.96
2022-11-05T02:11:02.000Z,279.9
2022-11-05T02:12:29.000Z,279.9
2022-11-05T02:14:35.000Z,279.96
2022-11-05T02:16:02.000Z,279.96
2022-11-05T02:18:08.000Z,279.96
2022-11-05T02:19:34.000Z,279.96
2022-11-05T02:21:40.000Z,280.02
2022-11-05T02:23:07.000Z,280.02
2022-11-05T02:25:14.000Z,280.02
2022-11-05T02:26:40.000Z,280.02
2022-11-05T02:28:46.000Z,280.02
2022-11-05T02:30:13.000Z,280.02
2022-11-05T02:32:19.000Z,280.02
2022-11-05T02:35:10.000Z,280.09
2022-11-05T02:36:36.000Z,280.15
2022-11-05T02:38:43.000Z,280.09
2022-11-05T02:40:09.000Z,280.15
2022-11-05T02:42:15.000Z,280.09
2022-11-05T02:43:42.000Z,280.15
2022-11-05T02:45:48.000Z,280.09
2022-11-05T02:47:14.000Z,280.09
2022-11-05T02:49:22.000Z,280.09
2022-11-05T02:50:49.000Z,280.09
2022-11-05T02:52:55.000Z,280.09
2022-11-05T02:54:21.000Z,280.09
2022-11-05T02:56:27.000Z,280.09
2022-11-05T02:57:54.000Z,280.15
2022-11-05T03:00:00.000Z,280.15
2022-11-05T03:01:26.000Z,280.09
2022-11-05T03:03:33.000Z,280.09
2022-11-05T03:04:59.000Z,280.09
2022-11-05T03:07:05.000Z,280.09
2022-11-05T03:08:32.000Z,280.09
2022-11-05T03:10:38.000Z,280.09
2022-11-05T03:13:29.000Z,280.09
2022-11-05T03:14:56.000Z,280.09
2022-11-05T03:17:02.000Z,280.09
2022-11-05T03:18:28.000Z,280.09
2022-11-05T03:20:34.000Z,280.09
2022-11-05T03:22:01.000Z,280.09
2022-11-05T03:24:07.000Z,280.09
2022-11-05T03:25:33.000Z,280.09
2022-11-05T03:27:40.000Z,280.09
2022-11-05T03:29:06.000Z,280.09
2022-11-05T03:31:12.000Z,280.02
2022-11-05T03:32:39.000Z,280.02
2022-11-05T03:34:45.000Z,280.02
2022-11-05T03:36:12.000Z,279.96
2022-11-05T03:38:18.000Z,280.02
2022-11-05T03:39:44.000Z,280.02
2022-11-05T03:41:50.000Z,279.96
2022-11-05T03:43:17.000Z,279.96
2022-11-05T03:45:23.000Z,279.96
2022-11-05T03:46:49.000Z,279.96
2022-11-05T03:48:56.000Z,279.9
2022-11-05T03:51:47.000Z,279.9
2022-11-05T03:53:13.000Z,279.9
2022-11-05T03:55:19.000Z,279.9
2022-11-05T03:56:46.000Z,279.9
2022-11-05T03:58:52.000Z,279.96
2022-11-05T04:00:23.000Z,279.96
2022-11-05T04:02:29.000Z,279.96
2022-11-05T04:03:56.000Z,279.96
2022-11-05T04:06:02.000Z,279.96
2022-11-05T04:07:29.000Z,279.96
2022-11-05T04:09:35.000Z,280.02
2022-11-05T04:11:01.000Z,280.02
2022-11-05T04:13:07.000Z,280.02
2022-11-05T04:14:35.000Z,280.02
2022-11-05T04:16:41.000Z,280.02
2022-11-05T04:18:07.000Z,280.02
2022-11-05T04:20:13.000Z,280.02
2022-11-05T04:21:40.000Z,280.02
2022-11-05T04:23:46.000Z,279.96
2022-11-05T04:25:12.000Z,279.96
2022-11-05T04:27:19.000Z,279.9
2022-11-05T04:30:09.000Z,279.96
2022-11-05T04:31:36.000Z,279.96
2022-11-05T04:33:42.000Z,279.96
2022-11-05T04:35:09.000Z,279.96
2022-11-05T04:37:15.000Z,279.96
2022-11-05T04:38:41.000Z,279.96
2022-11-05T04:40:47.000Z,279.96
2022-11-05T04:42:14.000Z,279.96
2022-11-05T04:44:20.000Z,279.96
2022-11-05T04:45:47.000Z,279.96
2022-11-05T04:47:53.000Z,279.96
2022-11-05T04:49:19.000Z,279.9
2022-11-05T04:51:25.000Z,279.9
2022-11-05T04:52:52.000Z,279.84
2022-11-05T04:54:58.000Z,279.77
2022-11-05T04:56:24.000Z,279.77
2022-11-05T04:58:30.000Z,279.77
2022-11-05T04:59:57.000Z,279.71
2022-11-05T05:02:03.000Z,279.65
2022-11-05T05:03:29.000Z,279.59
2022-11-05T05:05:36.000Z,279.52
2022-11-05T05:08:26.000Z,279.4
2022-11-05T05:09:53.000Z,279.34
2022-11-05T05:11:59.000Z,279.27
2022-11-05T05:13:26.000Z,279.21
2022-11-05T05:15:32.000Z,279.21
2022-11-05T05:16:58.000Z,279.15
2022-11-05T05:19:04.000Z,279.15
2022-11-05T05:20:31.000Z,279.09
2022-11-05T05:22:37.000Z,279.02
2022-11-05T05:24:03.000Z,279.02
2022-11-05T05:26:09.000Z,278.96
2022-11-05T05:27:36.000Z,278.96
2022-11-05T05:29:42.000Z,278.96
2022-11-05T05:31:08.000Z,278.84
2022-11-05T05:33:15.000Z,278.84
2022-11-05T05:34:41.000Z,278.77
2022-11-05T05:36:47.000Z,278.77
2022-11-05T05:38:14.000Z,278.77
2022-11-05T05:40:20.000Z,278.71
2022-11-05T05:41:46.000Z,278.71
2022-11-05T05:43:52.000Z,278.71
2022-11-05T05:46:43.000Z,278.77
2022-11-05T05:48:10.000Z,278.77
2022-11-05T05:50:16.000Z,278.77
2022-11-05T05:51:43.000Z,278.71
2022-11-05T05:53:49.000Z,278.71
2022-11-05T05:55:15.000Z,278.65
2022-11-05T05:57:21.000Z,278.52
2022-11-05T05:58:48.000Z,278.46
2022-11-05T06:00:54.000Z,278.46
2022-11-05T06:02:21.000Z,278.4
2022-11-05T06:04:27.000Z,278.46
2022-11-05T06:05:53.000Z,278.46
2022-11-05T06:07:59.000Z,278.34
2022-11-05T06:09:26.000Z,278.34
2022-11-05T06:11:32.000Z,278.27
2022-11-05T06:12:59.000Z,278.27
2022-11-05T06:15:05.000Z,278.21
2022-11-05T06:16:31.000Z,278.21
2022-11-05T06:18:37.000Z,278.15
2022-11-05T06:20:04.000Z,278.15
2022-11-05T06:22:10.000Z,278.09
2022-11-05T06:25:01.000Z,278.15
2022-11-05T06:26:27.000Z,278.09
2022-11-05T06:28:34.000Z,278.09
2022-11-05T06:30:00.000Z,278.02
2022-11-05T06:32:06.000Z,278.02
2022-11-05T06:33:33.000Z,278.02
2022-11-05T06:35:39.000Z,277.96
2022-11-05T06:37:05.000Z,277.96
2022-11-05T06:39:11.000Z,277.84
2022-11-05T06:40:38.000Z,277.77
2022-11-05T06:42:44.000Z,277.84
2022-11-05T06:44:11.000Z,277.9
2022-11-05T06:46:17.000Z,277.9
2022-11-05T06:47:43.000Z,277.9
2022-11-05T06:49:49.000Z,277.96
2022-11-05T06:51:16.000Z,277.96
2022-11-05T06:53:22.000Z,277.96
2022-11-05T06:54:48.000Z,277.96
2022-11-05T06:56:55.000Z,278.02
2022-11-05T06:58:21.000Z,278.02
2022-11-05T07:00:27.000Z,278.02
2022-11-05T07:03:19.000Z,278.02
2022-11-05T07:04:45.000Z,278.09
2022-11-05T07:06:51.000Z,278.02
2022-11-05T07:08:18.000Z,278.02
2022-11-05T07:10:24.000Z,278.02
2022-11-05T07:11:50.000Z,278.02
2022-11-05T07:13:57.000Z,278.02
2022-11-05T07:15:23.000Z,278.02
2022-11-05T07:17:29.000Z,278.02
2022-11-05T07:18:56.000Z,278.02
2022-11-05T07:21:02.000Z,277.96
2022-11-05T07:22:28.000Z,277.96
2022-11-05T07:24:34.000Z,277.96
2022-11-05T07:26:01.000Z,278.02
2022-11-05T07:28:07.000Z,278.02
2022-11-05T07:29:34.000Z,278.09
2022-11-05T07:31:40.000Z,278.09
2022-11-05T07:33:06.000Z,278.21
2022-11-05T07:35:13.000Z,278.21
2022-11-05T07:36:40.000Z,278.21
2022-11-05T07:38:46.000Z,278.27
2022-11-05T07:41:37.000Z,278.46
2022-11-05T07:43:03.000Z,278.46
2022-11-05T07:45:09.000Z,278.46
2022-11-05T07:46:36.000Z,278.4
2022-11-05T07:48:42.000Z,278.4
2022-11-05T07:50:08.000Z,278.4
2022-11-05T07:52:14.000Z,278.4
2022-11-05T07:53:41.000Z,278.4
2022-11-05T07:55:49.000Z,278.46
2022-11-05T07:57:16.000Z,278.46
2022-11-05T07:59:22.000Z,278.52
2022-11-05T08:00:49.000Z,278.59
2022-11-05T08:02:55.000Z,278.59
2022-11-05T08:04:30.000Z,278.52
2022-11-05T08:06:36.000Z,278.59
2022-11-05T08:08:02.000Z,278.59
2022-11-05T08:10:08.000Z,278.71
2022-11-05T08:11:35.000Z,278.71
2022-11-05T08:13:41.000Z,278.84
2022-11-05T08:15:07.000Z,278.9
2022-11-05T08:17:13.000Z,279.02
2022-11-05T08:20:07.000Z,279.09
2022-11-05T08:21:33.000Z,279.21
2022-11-05T08:23:40.000Z,279.15
2022-11-05T08:25:06.000Z,279.21
2022-11-05T08:27:12.000Z,279.27
2022-11-05T08:28:39.000Z,279.34
2022-11-05T08:30:45.000Z,279.4
2022-11-05T08:32:11.000Z,279.4
2022-11-05T08:34:17.000Z,279.46
2022-11-05T08:35:44.000Z,279.46
2022-11-05T08:37:50.000Z,279.46
2022-11-05T08:39:17.000Z,279.52
2022-11-05T08:41:23.000Z,279.52
2022-11-05T08:42:49.000Z,279.59
2022-11-05T08:44:55.000Z,279.59
2022-11-05T08:46:22.000Z,279.65
2022-11-05T08:48:28.000Z,279.65
2022-11-05T08:49:54.000Z,279.71
2022-11-05T08:52:00.000Z,279.77
2022-11-05T08:53:27.000Z,279.77
2022-11-05T08:55:33.000Z,279.84
2022-11-05T08:58:24.000Z,279.84
2022-11-05T08:59:50.000Z,279.9
2022-11-05T09:01:56.000Z,279.96
2022-11-05T09:03:23.000Z,280.02
2022-11-05T09:05:29.000Z,280.09
2022-11-05T09:06:56.000Z,280.09
2022-11-05T09:09:02.000Z,280.15
2022-11-05T09:10:28.000Z,280.15
2022-11-05T09:12:34.000Z,280.21
2022-11-05T09:14:01.000Z,280.27
2022-11-05T09:16:07.000Z,280.4
2022-11-05T09:17:34.000Z,280.52
2022-11-05T09:19:40.000Z,280.52
2022-11-05T09:21:06.000Z,280.65
2022-11-05T09:23:13.000Z,280.65
2022-11-05T09:24:39.000Z,280.71
2022-11-05T09:26:45.000Z,280.84
2022-11-05T09:28:12.000Z,280.84
2022-11-05T09:30:21.000Z,280.9
2022-11-05T09:31:48.000Z,280.96
2022-11-05T09:33:54.000Z,280.96
2022-11-05T09:36:45.000Z,281.09
2022-11-05T09:38:11.000Z,281.09
2022-11-05T09:40:17.000Z,281.15
2022-11-05T09:41:44.000Z,281.21
2022-11-05T09:43:50.000Z,281.27
2022-11-05T09:45:17.000Z,281.27
2022-11-05T09:47:23.000Z,281.34
2022-11-05T09:48:49.000Z,281.34
2022-11-05T09:50:55.000Z,281.34
2022-11-05T09:52:22.000Z,281.4
2022-11-05T09:54:28.000Z,281.4
2022-11-05T09:55:54.000Z,281.4
2022-11-05T09:58:00.000Z,281.46
2022-11-05T09:59:27.000Z,281.46
2022-11-05T10:01:33.000Z,281.59
2022-11-05T10:03:00.000Z,281.65
2022-11-05T10:05:06.000Z,281.65
2022-11-05T10:06:35.000Z,281.71
2022-11-05T10:08:41.000Z,281.59
2022-11-05T10:10:07.000Z,281.65
2022-11-05T10:12:13.000Z,281.71
2022-11-05T10:15:04.000Z,281.65
2022-11-05T10:16:31.000Z,281.71
2022-11-05T10:18:37.000Z,281.65
2022-11-05T10:20:03.000Z,281.65
2022-11-05T10:22:10.000Z,281.59
2022-11-05T10:23:36.000Z,281.59
2022-11-05T10:25:42.000Z,281.59
2022-11-05T10:27:09.000Z,281.59
2022-11-05T10:29:15.000Z,281.52
2022-11-05T10:30:41.000Z,281.52
2022-11-05T10:32:48.000Z,281.59
2022-11-05T10:34:14.000Z,281.65
2022-11-05T10:36:20.000Z,281.59
2022-11-05T10:37:47.000Z,281.59
2022-11-05T10:39:53.000Z,281.59
2022-11-05T10:41:20.000Z,281.59
2022-11-05T10:43:26.000Z,281.65
2022-11-05T10:44:52.000Z,281.65
2022-11-05T10:46:59.000Z,281.65
2022-11-05T10:48:25.000Z,281.71
2022-11-05T10:50:31.000Z,281.71
2022-11-05T10:53:23.000Z,281.71
2022-11-05T10:54:49.000Z,281.65
2022-11-05T10:56:55.000Z,281.65
2022-11-05T10:58:22.000Z,281.65
2022-11-05T11:00:28.000Z,281.71
2022-11-05T11:01:54.000Z,281.71
2022-11-05T11:04:00.000Z,281.71
2022-11-05T11:05:27.000Z,281.77
2022-11-05T11:07:33.000Z,281.71
2022-11-05T11:09:00.000Z,281.71
2022-11-05T11:11:06.000Z,281.71
2022-11-05T11:12:32.000Z,281.71
2022-11-05T11:14:45.000Z,281.65
2022-11-05T11:16:11.000Z,281.65
2022-11-05T11:18:17.000Z,281.71
2022-11-05T11:19:44.000Z,281.71
2022-11-05T11:21:50.000Z,281.65
2022-11-05T11:23:16.000Z,281.71
2022-11-05T11:25:22.000Z,281.71
2022-11-05T11:26:49.000Z,281.71
2022-11-05T11:28:55.000Z,281.71
2022-11-05T11:31:46.000Z,281.71
2022-11-05T11:33:12.000Z,281.71
2022-11-05T11:35:19.000Z,281.71
2022-11-05T11:36:45.000Z,281.71
2022-11-05T11:38:51.000Z,281.65
2022-11-05T11:40:18.000Z,281.65
2022-11-05T11:42:24.000Z,281.65
2022-11-05T11:43:51.000Z,281.59
2022-11-05T11:45:57.000Z,281.59
2022-11-05T11:47:29.000Z,281.71
2022-11-05T11:49:36.000Z,281.65
2022-11-05T11:51:02.000Z,281.71
2022-11-05T11:53:08.000Z,281.77
2022-11-05T11:54:35.000Z,281.9
2022-11-05T11:56:41.000Z,281.9
2022-11-05T11:58:08.000Z,281.96
2022-11-05T12:00:14.000Z,282.09
2022-11-05T12:01:40.000Z,282.21
2022-11-05T12:03:47.000Z,282.4
2022-11-05T12:05:13.000Z,282.46
2022-11-05T12:07:19.000Z,282.34
2022-11-05T12:10:11.000Z,282.46
2022-11-05T12:11:37.000Z,282.4
2022-11-05T12:13:43.000Z,282.46
2022-11-05T12:15:10.000Z,282.4
2022-11-05T12:17:16.000Z,282.46
2022-11-05T12:18:43.000Z,282.52
2022-11-05T12:20:49.000Z,282.59
2022-11-05T12:22:22.000Z,282.59
2022-11-05T12:24:28.000Z,282.65
2022-11-05T12:25:55.000Z,282.65
2022-11-05T12:28:01.000Z,282.71
2022-11-05T12:29:27.000Z,282.71
2022-11-05T12:31:39.000Z,282.77
2022-11-05T12:33:06.000Z,282.84
2022-11-05T12:35:12.000Z,282.84
2022-11-05T12:36:39.000Z,282.96
2022-11-05T12:38:45.000Z,282.96
2022-11-05T12:40:11.000Z,282.96
2022-11-05T12:42:17.000Z,283.02
2022-11-05T12:43:44.000Z,283.15
2022-11-05T12:45:50.000Z,283.09
2022-11-05T12:48:41.000Z,283.15
2022-11-05T12:50:08.000Z,283.21
2022-11-05T12:52:14.000Z,283.27
2022-11-05T12:53:40.000Z,283.4
2022-11-05T12:55:46.000Z,283.52
2022-11-05T12:57:13.000Z,283.52
2022-11-05T12:59:19.000Z,283.52
2022-11-05T13:00:46.000Z,283.46
2022-11-05T13:02:52.000Z,283.4
2022-11-05T13:04:18.000Z,283.46
2022-11-05T13:06:25.000Z,283.34
2022-11-05T13:07:51.000Z,283.34
2022-11-05T13:09:57.000Z,283.34
2022-11-05T13:11:24.000Z,283.21
2022-11-05T13:13:30.000Z,283.09
2022-11-05T13:14:56.000Z,282.96
2022-11-05T13:17:02.000Z,282.84
2022-11-05T13:18:29.000Z,282.77
2022-11-05T13:20:35.000Z,282.77
2022-11-05T13:22:01.000Z,282.9
2022-11-05T13:24:08.000Z,283.02
2022-11-05T13:26:59.000Z,283.09
2022-11-05T13:28:26.000Z,283.09
2022-11-05T13:30:32.000Z,282.96
2022-11-05T13:31:58.000Z,282.9
2022-11-05T13:34:05.000Z,282.84
2022-11-05T13:35:31.000Z,282.9
2022-11-05T13:37:37.000Z,282.96
2022-11-05T13:39:04.000Z,282.96
2022-11-05T13:41:10.000Z,282.96
2022-11-05T13:42:36.000Z,283.02
2022-11-05T13:44:42.000Z,283.09
2022-11-05T13:46:09.000Z,283.09
2022-11-05T13:48:15.000Z,283.02
2022-11-05T13:49:41.000Z,283.02
2022-11-05T13:51:47.000Z,282.96
2022-11-05T13:53:14.000Z,282.9
2022-11-05T13:55:20.000Z,282.84
2022-11-05T13:56:46.000Z,282.77
2022-11-05T13:58:53.000Z,282.65
2022-11-05T14:00:19.000Z,282.65
2022-11-05T14:02:25.000Z,282.59
2022-11-05T14:05:17.000Z,282.52
2022-11-05T14:06:43.000Z,282.46
2022-11-05T14:08:49.000Z,282.4
2022-11-05T14:10:16.000Z,282.34
2022-11-05T14:12:22.000Z,282.27
2022-11-05T14:13:48.000Z,282.21
2022-11-05T14:15:55.000Z,282.15
2022-11-05T14:17:21.000Z,282.15
2022-11-05T14:19:27.000Z,282.09
2022-11-05T14:20:54.000Z,282.09
2022-11-05T14:23:00.000Z,282.09
2022-11-05T14:24:33.000Z,282.09
2022-11-05T14:26:39.000Z,282.09
2022-11-05T14:28:05.000Z,282.09
2022-11-05T14:30:12.000Z,282.09
2022-11-05T14:31:38.000Z,282.09
2022-11-05T14:34:12.000Z,282.09
2022-11-05T14:35:39.000Z,282.09
2022-11-05T14:37:45.000Z,282.09
2022-11-05T14:39:11.000Z,282.09
2022-11-05T14:41:17.000Z,282.09
2022-11-05T14:44:08.000Z,282.09
2022-11-05T14:45:35.000Z,282.09
2022-11-05T14:47:41.000Z,282.09
2022-11-05T14:49:07.000Z,282.02
2022-11-05T14:51:13.000Z,282.02
2022-11-05T14:52:40.000Z,282.02
2022-11-05T14:54:46.000Z,281.96
2022-11-05T14:56:12.000Z,281.96
2022-11-05T14:58:19.000Z,281.9
2022-11-05T14:59:45.000Z,281.9
2022-11-05T15:01:51.000Z,281.84
2022-11-05T15:03:18.000Z,281.84
2022-11-05T15:05:24.000Z,281.77
2022-11-05T15:06:51.000Z,281.71
2022-11-05T15:08:57.000Z,281.65
2022-11-05T15:10:23.000Z,281.65
2022-11-05T15:12:30.000Z,281.52
2022-11-05T15:13:56.000Z,281.46
2022-11-05T15:16:02.000Z,281.46
2022-11-05T15:17:29.000Z,281.46
2022-11-05T15:19:35.000Z,281.46
2022-11-05T15:22:26.000Z,281.34
2022-11-05T15:23:53.000Z,281.34
2022-11-05T15:25:59.000Z,281.27
2022-11-05T15:27:25.000Z,281.34
2022-11-05T15:29:31.000Z,281.27
2022-11-05T15:30:58.000Z,281.21
2022-11-05T15:33:04.000Z,281.09
2022-11-05T15:34:31.000Z,281.09
2022-11-05T15:36:37.000Z,281.09
2022-11-05T15:38:03.000Z,281.15
2022-11-05T15:40:09.000Z,281.09
2022-11-05T15:41:36.000Z,281.02
2022-11-05T15:43:42.000Z,280.96
2022-11-05T15:45:12.000Z,280.9
2022-11-05T15:47:18.000Z,280.77
2022-11-05T15:48:45.000Z,280.77
2022-11-05T15:50:51.000Z,280.71
2022-11-05T15:52:17.000Z,280.71
2022-11-05T15:54:23.000Z,280.65
2022-11-05T15:55:55.000Z,280.65
2022-11-05T15:58:01.000Z,280.59
2022-11-05T16:00:52.000Z,280.59
2022-11-05T16:02:18.000Z,280.52
2022-11-05T16:04:24.000Z,280.46
2022-11-05T16:05:51.000Z,280.46
2022-11-05T16:07:57.000Z,280.4
2022-11-05T16:09:24.000Z,280.4
2022-11-05T16:11:30.000Z,280.46
2022-11-05T16:12:56.000Z,280.4
2022-11-05T16:15:02.000Z,280.34
2022-11-05T16:16:29.000Z,280.4
2022-11-05T16:18:35.000Z,280.34
2022-11-05T16:20:01.000Z,280.34
2022-11-05T16:22:08.000Z,280.27
2022-11-05T16:23:34.000Z,280.21
2022-11-05T16:25:40.000Z,280.27
2022-11-05T16:27:07.000Z,280.27
2022-11-05T16:29:13.000Z,280.21
2022-11-05T16:30:40.000Z,280.21
2022-11-05T16:32:46.000Z,280.15
2022-11-05T16:34:12.000Z,280.15
2022-11-05T16:36:18.000Z,280.21
2022-11-05T16:39:09.000Z,280.15
2022-11-05T16:40:36.000Z,280.09
2022-11-05T16:42:42.000Z,280.09
2022-11-05T16:44:09.000Z,280.09
2022-11-05T16:46:15.000Z,280.09
2022-11-05T16:47:42.000Z,280.09
2022-11-05T16:49:48.000Z,280.09
2022-11-05T16:51:14.000Z,280.09
2022-11-05T16:53:20.000Z,280.09
2022-11-05T16:54:47.000Z,280.02
2022-11-05T16:56:53.000Z,279.9
2022-11-05T16:58:19.000Z,279.9
2022-11-05T17:00:26.000Z,279.77
2022-11-05T17:01:52.000Z,279.71
2022-11-05T17:04:00.000Z,279.77
2022-11-05T17:05:26.000Z,279.71
2022-11-05T17:07:32.000Z,279.71
2022-11-05T17:09:05.000Z,279.77
2022-11-05T17:11:12.000Z,279.84
2022-11-05T17:12:38.000Z,279.77
2022-11-05T17:14:44.000Z,279.71
2022-11-05T17:17:36.000Z,279.71
2022-11-05T17:19:02.000Z,279.65
2022-11-05T17:21:08.000Z,279.59
2022-11-05T17:22:35.000Z,279.65
2022-11-05T17:24:41.000Z,279.65
2022-11-05T17:26:07.000Z,279.59
2022-11-05T17:28:13.000Z,279.52
2022-11-05T17:29:40.000Z,279.46
2022-11-05T17:31:47.000Z,279.4
2022-11-05T17:33:13.000Z,279.46
2022-11-05T17:35:20.000Z,279.46
2022-11-05T17:36:47.000Z,279.52
2022-11-05T17:38:53.000Z,279.52
2022-11-05T17:40:19.000Z,279.52
2022-11-05T17:42:26.000Z,279.46
2022-11-05T17:43:52.000Z,279.46
2022-11-05T17:45:58.000Z,279.4
2022-11-05T17:47:29.000Z,279.4
2022-11-05T17:49:35.000Z,279.4
2022-11-05T17:51:02.000Z,279.34
2022-11-05T17:53:08.000Z,279.27
2022-11-05T17:55:59.000Z,279.27
2022-11-05T17:57:26.000Z,279.21
2022-11-05T17:59:32.000Z,279.15
2022-11-05T18:00:58.000Z,279.09
2022-11-05T18:03:04.000Z,279.09
2022-11-05T18:04:31.000Z,279.09
2022-11-05T18:06:37.000Z,279.09
2022-11-05T18:08:04.000Z,279.09
2022-11-05T18:10:10.000Z,279.09
2022-11-05T18:11:36.000Z,279.02
2022-11-05T18:13:42.000Z,279.02
2022-11-05T18:15:09.000Z,279.02
2022-11-05T18:17:15.000Z,279.27
2022-11-05T18:18:41.000Z,279.4
2022-11-05T18:20:47.000Z,279.52
2022-11-05T18:22:14.000Z,279.46
2022-11-05T18:24:20.000Z,279.46
2022-11-05T18:25:47.000Z,279.46
2022-11-05T18:27:53.000Z,279.52
2022-11-05T18:29:19.000Z,279.59
2022-11-05T18:31:25.000Z,279.65
2022-11-05T18:34:17.000Z,279.59
2022-11-05T18:35:43.000Z,279.52
2022-11-05T18:37:49.000Z,279.52
2022-11-05T18:39:16.000Z,279.52
2022-11-05T18:41:22.000Z,279.59
2022-11-05T18:42:48.000Z,279.59
2022-11-05T18:44:54.000Z,279.52
2022-11-05T18:46:21.000Z,279.46
2022-11-05T18:49:00.000Z,279.46
2022-11-05T18:50:26.000Z,279.4
2022-11-05T18:52:32.000Z,279.4
2022-11-05T18:53:59.000Z,279.4
2022-11-05T18:56:05.000Z,279.4
2022-11-05T18:57:31.000Z,279.4
2022-11-05T18:59:38.000Z,279.4
2022-11-05T19:01:04.000Z,279.46
2022-11-05T19:03:10.000Z,279.46
2022-11-05T19:04:37.000Z,279.52
2022-11-05T19:06:43.000Z,279.59
2022-11-05T19:08:10.000Z,279.59
2022-11-05T19:10:16.000Z,279.59
2022-11-05T19:13:07.000Z,279.65
2022-11-05T19:14:34.000Z,279.65
2022-11-05T19:16:40.000Z,279.77
2022-11-05T19:18:06.000Z,279.71
2022-11-05T19:20:12.000Z,279.71
2022-11-05T19:21:39.000Z,279.71
2022-11-05T19:23:45.000Z,279.65
2022-11-05T19:25:11.000Z,279.71
2022-11-05T19:27:18.000Z,279.71
2022-11-05T19:28:44.000Z,279.77
2022-11-05T19:30:50.000Z,279.77
2022-11-05T19:32:17.000Z,279.77
2022-11-05T19:34:23.000Z,279.77
2022-11-05T19:35:49.000Z,279.77
2022-11-05T19:37:55.000Z,279.77
2022-11-05T19:39:22.000Z,279.84
2022-11-05T19:41:28.000Z,279.84
2022-11-05T19:42:54.000Z,279.84
2022-11-05T19:45:01.000Z,279.9
2022-11-05T19:47:03.000Z,279.9
2022-11-05T19:49:09.000Z,279.9
2022-11-05T19:52:00.000Z,279.84
2022-11-05T19:53:26.000Z,279.84
2022-11-05T19:55:32.000Z,279.84
2022-11-05T19:56:59.000Z,279.9
2022-11-05T19:59:05.000Z,279.84
2022-11-05T20:00:31.000Z,279.9
2022-11-05T20:02:38.000Z,279.9
2022-11-05T20:04:04.000Z,279.84
2022-11-05T20:06:11.000Z,279.84
2022-11-05T20:07:37.000Z,279.77
2022-11-05T20:09:43.000Z,279.84
2022-11-05T20:11:10.000Z,279.77
2022-11-05T20:13:16.000Z,279.71
2022-11-05T20:14:44.000Z,279.77
2022-11-05T20:16:50.000Z,279.77
2022-11-05T20:18:17.000Z,279.77
2022-11-05T20:20:23.000Z,279.71
2022-11-05T20:21:49.000Z,279.71
2022-11-05T20:23:55.000Z,279.71
2022-11-05T20:25:22.000Z,279.77
2022-11-05T20:27:28.000Z,279.77
2022-11-05T20:30:19.000Z,279.77
2022-11-05T20:31:46.000Z,279.77
2022-11-05T20:33:52.000Z,279.77
2022-11-05T20:35:18.000Z,279.84
2022-11-05T20:37:24.000Z,279.84
2022-11-05T20:38:51.000Z,279.84
2022-11-05T20:40:57.000Z,279.77
2022-11-05T20:42:24.000Z,279.77
2022-11-05T20:44:30.000Z,279.77
2022-11-05T20:45:56.000Z,279.77
2022-11-05T20:48:02.000Z,279.77
2022-11-05T20:49:29.000Z,279.77
2022-11-05T20:51:35.000Z,279.77
2022-11-05T20:53:01.000Z,279.84
2022-11-05T20:55:07.000Z,279.77
2022-11-05T20:56:34.000Z,279.77
2022-11-05T20:58:40.000Z,279.77
2022-11-05T21:00:07.000Z,279.71
2022-11-05T21:02:13.000Z,279.77
2022-11-05T21:03:39.000Z,279.71
2022-11-05T21:05:45.000Z,279.71
2022-11-05T21:08:36.000Z,279.65
2022-11-05T21:10:03.000Z,279.65
2022-11-05T21:12:09.000Z,279.52
2022-11-05T21:13:36.000Z,279.52
2022-11-05T21:15:42.000Z,279.59
2022-11-05T21:17:08.000Z,279.52
2022-11-05T21:19:14.000Z,279.52
2022-11-05T21:20:41.000Z,279.59
2022-11-05T21:22:47.000Z,279.52
2022-11-05T21:24:14.000Z,279.59
2022-11-05T21:26:20.000Z,279.52
2022-11-05T21:27:46.000Z,279.52
2022-11-05T21:29:52.000Z,279.46
2022-11-05T21:31:19.000Z,279.46
2022-11-05T21:33:25.000Z,279.4
2022-11-05T21:34:51.000Z,279.4
2022-11-05T21:36:57.000Z,279.4
2022-11-05T21:38:24.000Z,279.34
2022-11-05T21:40:30.000Z,279.27
2022-11-05T21:41:57.000Z,279.34
2022-11-05T21:44:03.000Z,279.27
2022-11-05T21:46:54.000Z,279.27
2022-11-05T21:48:21.000Z,279.27
2022-11-05T21:50:27.000Z,279.21
2022-11-05T21:51:53.000Z,279.27
2022-11-05T21:53:59.000Z,279.21
2022-11-05T21:55:26.000Z,279.21
2022-11-05T21:57:32.000Z,279.21
2022-11-05T21:58:58.000Z,279.21
2022-11-05T22:01:05.000Z,279.15
2022-11-05T22:02:31.000Z,279.15
2022-11-05T22:04:38.000Z,279.15
2022-11-05T22:06:04.000Z,279.15
2022-11-05T22:08:10.000Z,279.21
2022-11-05T22:09:37.000Z,279.15
2022-11-05T22:11:43.000Z,279.15
2022-11-05T22:13:10.000Z,279.21
2022-11-05T22:15:16.000Z,279.15
2022-11-05T22:16:42.000Z,279.15
2022-11-05T22:18:49.000Z,279.15
2022-11-05T22:20:15.000Z,279.15
2022-11-05T22:22:21.000Z,279.21
2022-11-05T22:25:12.000Z,279.15
2022-11-05T22:26:39.000Z,279.21
2022-11-05T22:28:45.000Z,279.21
2022-11-05T22:30:11.000Z,279.21
2022-11-05T22:32:18.000Z,279.15
2022-11-05T22:33:44.000Z,279.15
2022-11-05T22:35:50.000Z,279.15
2022-11-05T22:37:17.000Z,279.15
2022-11-05T22:39:23.000Z,279.15
2022-11-05T22:40:49.000Z,279.15
2022-11-05T22:42:55.000Z,279.15
2022-11-05T22:44:22.000Z,279.15
2022-11-05T22:46:28.000Z,279.15
2022-11-05T22:47:55.000Z,279.15
2022-11-05T22:50:01.000Z,279.15
2022-11-05T22:51:27.000Z,279.09